createdAt,value
2023-03-17T00:01:23.967Z,0.77
2023-03-17T00:03:51.147Z,1.15
2023-03-17T00:06:44.428Z,1.20
2023-03-17T00:09:17.239Z,1.08
2023-03-17T00:11:45.784Z,1.00
2023-03-17T00:14:12.486Z,1.10
2023-03-17T00:16:45.071Z,1.00
2023-03-17T00:19:17.343Z,0.90
2023-03-17T00:21:46.198Z,0.90
2023-03-17T00:24:15.043Z,1.20
2023-03-17T00:26:42.551Z,0.80
2023-03-17T00:29:09.848Z,1.17
2023-03-17T00:31:38.236Z,0.73
2023-03-17T00:34:06.022Z,1.30
2023-03-17T00:36:34.296Z,0.80
2023-03-17T00:39:01.672Z,0.80
2023-03-17T00:41:29.522Z,0.93
2023-03-17T00:43:57.507Z,0.93
2023-03-17T00:46:36.324Z,1.00
2023-03-17T00:49:24.860Z,0.93
2023-03-17T00:51:52.391Z,1.10
2023-03-17T00:54:20.863Z,0.98
2023-03-17T00:56:49.779Z,1.10
2023-03-17T00:59:30.159Z,0.93
2023-03-17T01:01:57.730Z,1.08
2023-03-17T01:04:24.785Z,0.88
2023-03-17T01:06:52.272Z,1.25
2023-03-17T01:09:20.277Z,1.00
2023-03-17T01:11:48.397Z,1.20
2023-03-17T01:14:15.322Z,0.80
2023-03-17T01:16:42.069Z,0.90
2023-03-17T01:19:14.040Z,0.95
2023-03-17T01:21:41.671Z,0.90
2023-03-17T01:24:08.493Z,1.20
2023-03-17T01:26:35.462Z,1.45
2023-03-17T01:29:02.417Z,1.10
2023-03-17T01:31:29.547Z,1.13
2023-03-17T01:33:56.568Z,1.02
2023-03-17T01:36:23.216Z,0.80
2023-03-17T01:38:50.870Z,0.88
2023-03-17T01:41:20.618Z,0.95
2023-03-17T01:43:47.477Z,1.00
2023-03-17T01:46:32.070Z,1.10
2023-03-17T01:49:19.842Z,1.17
2023-03-17T01:52:01.627Z,0.95
2023-03-17T01:54:50.295Z,1.35
2023-03-17T01:57:23.509Z,0.90
2023-03-17T01:59:54.448Z,0.75
2023-03-17T02:02:31.754Z,1.15
2023-03-17T02:04:59.133Z,1.10
2023-03-17T02:07:28.167Z,1.17
2023-03-17T02:09:57.006Z,1.00
2023-03-17T02:12:25.414Z,1.02
2023-03-17T02:14:52.843Z,1.27
2023-03-17T02:17:22.052Z,1.35
2023-03-17T02:19:49.109Z,1.20
2023-03-17T02:22:18.199Z,1.05
2023-03-17T02:24:51.215Z,0.82
2023-03-17T02:27:35.512Z,1.30
2023-03-17T02:30:02.853Z,1.25
2023-03-17T02:32:29.540Z,1.00
2023-03-17T02:34:59.421Z,1.40
2023-03-17T02:37:26.223Z,1.38
2023-03-17T02:39:53.863Z,1.20
2023-03-17T02:42:21.100Z,1.65
2023-03-17T02:44:48.415Z,1.40
2023-03-17T02:47:15.305Z,1.30
2023-03-17T02:49:43.393Z,1.60
2023-03-17T02:52:10.086Z,1.33
2023-03-17T02:54:36.868Z,1.42
2023-03-17T02:57:03.951Z,1.35
2023-03-17T02:59:30.793Z,1.25
2023-03-17T03:01:57.466Z,1.38
2023-03-17T03:04:24.411Z,1.67
2023-03-17T03:06:51.643Z,1.17
2023-03-17T03:09:18.301Z,1.10
2023-03-17T03:11:45.332Z,1.55
2023-03-17T03:14:12.011Z,1.38
2023-03-17T03:16:39.249Z,1.08
2023-03-17T03:19:07.975Z,1.00
2023-03-17T03:21:35.591Z,1.48
2023-03-17T03:24:02.891Z,1.60
2023-03-17T03:26:29.716Z,1.20
2023-03-17T03:28:58.447Z,1.25
2023-03-17T03:31:25.505Z,1.35
2023-03-17T03:33:52.383Z,1.42
2023-03-17T03:36:19.446Z,1.40
2023-03-17T03:38:46.700Z,1.40
2023-03-17T03:41:13.390Z,1.60
2023-03-17T03:43:40.702Z,1.30
2023-03-17T03:46:07.687Z,1.52
2023-03-17T03:48:34.922Z,1.50
2023-03-17T03:51:02.872Z,1.25
2023-03-17T03:53:30.340Z,1.45
2023-03-17T03:55:57.071Z,1.40
2023-03-17T03:58:24.097Z,1.35
2023-03-17T04:00:51.128Z,1.35
2023-03-17T04:03:18.566Z,1.45
2023-03-17T04:05:45.453Z,1.73
2023-03-17T04:08:12.623Z,1.30
2023-03-17T04:10:39.529Z,1.23
2023-03-17T04:13:06.630Z,1.60
2023-03-17T04:15:33.909Z,1.70
2023-03-17T04:18:00.739Z,1.73
2023-03-17T04:20:27.688Z,1.58
2023-03-17T04:22:54.497Z,1.55
2023-03-17T04:25:21.708Z,1.80
2023-03-17T04:27:48.479Z,1.55
2023-03-17T04:30:16.948Z,1.83
2023-03-17T04:32:44.816Z,1.73
2023-03-17T04:35:17.805Z,1.80
2023-03-17T04:37:44.919Z,1.67
2023-03-17T04:40:13.876Z,1.45
2023-03-17T04:42:40.735Z,1.70
2023-03-17T04:45:09.500Z,1.67
2023-03-17T04:47:36.338Z,1.90
2023-03-17T04:50:04.904Z,1.70
2023-03-17T04:52:31.602Z,1.98
2023-03-17T04:54:58.470Z,1.73
2023-03-17T04:57:25.680Z,1.77
2023-03-17T04:59:52.515Z,1.30
2023-03-17T05:02:19.400Z,2.17
2023-03-17T05:04:46.678Z,1.95
2023-03-17T05:07:13.848Z,1.88
2023-03-17T05:09:40.740Z,1.60
2023-03-17T05:12:08.881Z,2.10
2023-03-17T05:14:36.415Z,2.45
2023-03-17T05:17:03.363Z,1.58
2023-03-17T05:19:30.175Z,1.77
2023-03-17T05:21:56.814Z,1.98
2023-03-17T05:24:23.622Z,1.80
2023-03-17T05:26:50.418Z,1.98
2023-03-17T05:29:17.320Z,2.20
2023-03-17T05:31:44.131Z,2.20
2023-03-17T05:34:10.950Z,1.83
2023-03-17T05:36:37.751Z,1.75
2023-03-17T05:39:05.179Z,1.90
2023-03-17T05:41:32.233Z,1.95
2023-03-17T05:43:59.164Z,1.83
2023-03-17T05:46:26.707Z,1.77
2023-03-17T05:48:53.567Z,1.95
2023-03-17T05:51:21.425Z,1.75
2023-03-17T05:53:48.856Z,1.77
2023-03-17T05:56:18.232Z,1.92
2023-03-17T05:58:44.902Z,1.70
2023-03-17T06:01:13.814Z,2.08
2023-03-17T06:03:40.894Z,1.77
2023-03-17T06:06:07.845Z,2.20
2023-03-17T06:08:34.804Z,1.90
2023-03-17T06:11:01.829Z,2.20
2023-03-17T06:13:28.897Z,1.80
2023-03-17T06:15:56.556Z,1.77
2023-03-17T06:18:23.317Z,1.95
2023-03-17T06:20:49.947Z,2.40
2023-03-17T06:23:17.019Z,2.20
2023-03-17T06:25:43.646Z,2.13
2023-03-17T06:28:10.452Z,2.30
2023-03-17T06:30:40.070Z,2.22
2023-03-17T06:33:08.348Z,2.10
2023-03-17T06:35:35.906Z,1.90
2023-03-17T06:38:03.676Z,2.28
2023-03-17T06:40:31.039Z,2.40
2023-03-17T06:42:57.936Z,2.40
2023-03-17T06:45:27.276Z,2.67
2023-03-17T06:47:54.162Z,2.20
2023-03-17T06:50:21.499Z,2.20
2023-03-17T06:52:48.158Z,2.15
2023-03-17T06:55:15.848Z,2.20
2023-03-17T06:57:42.868Z,2.70
2023-03-17T07:00:14.380Z,2.65
2023-03-17T07:02:41.864Z,2.50
2023-03-17T07:05:09.004Z,2.22
2023-03-17T07:07:35.844Z,2.30
2023-03-17T07:10:04.163Z,2.13
2023-03-17T07:12:30.803Z,2.50
2023-03-17T07:14:58.235Z,2.55
2023-03-17T07:17:25.312Z,2.22
2023-03-17T07:19:52.388Z,2.10
2023-03-17T07:22:19.283Z,2.53
2023-03-17T07:24:47.011Z,2.40
2023-03-17T07:27:14.513Z,2.40
2023-03-17T07:29:41.539Z,2.75
2023-03-17T07:32:09.587Z,2.50
2023-03-17T07:34:36.487Z,3.05
2023-03-17T07:37:03.903Z,2.75
2023-03-17T07:39:32.175Z,2.78
2023-03-17T07:41:59.019Z,2.17
2023-03-17T07:44:26.031Z,2.45
2023-03-17T07:46:54.225Z,2.55
2023-03-17T07:49:40.469Z,2.13
2023-03-17T07:52:11.140Z,2.33
2023-03-17T07:54:42.771Z,2.28
2023-03-17T07:57:09.776Z,2.45
2023-03-17T07:59:36.840Z,2.45
2023-03-17T08:02:03.818Z,2.15
2023-03-17T08:04:32.278Z,2.40
2023-03-17T08:06:58.996Z,2.33
2023-03-17T08:09:25.777Z,2.67
2023-03-17T08:11:52.607Z,2.40
2023-03-17T08:14:20.257Z,2.97
2023-03-17T08:16:47.285Z,2.15
2023-03-17T08:19:14.222Z,2.65
2023-03-17T08:21:40.882Z,2.70
2023-03-17T08:24:08.508Z,2.53
2023-03-17T08:26:35.389Z,2.50
2023-03-17T08:29:02.053Z,2.28
2023-03-17T08:31:28.836Z,2.80
2023-03-17T08:33:58.670Z,2.50
2023-03-17T08:36:26.378Z,2.30
2023-03-17T08:38:53.486Z,2.50
2023-03-17T08:41:23.872Z,2.47
2023-03-17T08:43:51.858Z,2.53
2023-03-17T08:46:30.386Z,2.58
2023-03-17T08:49:00.290Z,2.40
2023-03-17T08:51:33.127Z,3.08
2023-03-17T08:54:00.670Z,3.15
2023-03-17T08:56:27.994Z,2.90
2023-03-17T08:58:55.357Z,2.50
2023-03-17T09:01:23.068Z,2.95
2023-03-17T09:03:51.027Z,2.38
2023-03-17T09:06:18.208Z,2.45
2023-03-17T09:08:47.323Z,2.10
2023-03-17T09:11:16.579Z,2.70
2023-03-17T09:13:44.644Z,2.08
2023-03-17T09:16:11.524Z,2.05
2023-03-17T09:18:41.079Z,2.03
2023-03-17T09:21:12.178Z,2.20
2023-03-17T09:23:39.313Z,1.92
2023-03-17T09:26:06.137Z,2.42
2023-03-17T09:28:37.412Z,1.88
2023-03-17T09:31:06.290Z,2.25
2023-03-17T09:33:32.944Z,2.20
2023-03-17T09:35:59.618Z,2.25
2023-03-17T09:38:28.012Z,2.50
2023-03-17T09:41:11.847Z,1.95
2023-03-17T09:43:48.832Z,2.30
2023-03-17T09:46:32.609Z,2.15
2023-03-17T09:49:01.477Z,2.30
2023-03-17T09:51:31.748Z,2.10
2023-03-17T09:54:03.678Z,2.15
2023-03-17T09:56:34.520Z,2.15
2023-03-17T09:59:05.255Z,2.05
2023-03-17T10:01:32.434Z,1.92
2023-03-17T10:03:59.250Z,2.10
2023-03-17T10:06:34.585Z,1.88
2023-03-17T10:09:12.282Z,2.35
2023-03-17T10:11:45.991Z,1.85
2023-03-17T10:14:38.364Z,2.40
2023-03-17T10:17:16.650Z,2.22
2023-03-17T10:20:04.563Z,1.95
2023-03-17T10:22:50.378Z,2.10
2023-03-17T10:25:20.183Z,2.33
2023-03-17T10:27:58.588Z,2.30
2023-03-17T10:30:26.107Z,1.83
2023-03-17T10:32:57.584Z,1.92
2023-03-17T10:35:24.815Z,1.73
2023-03-17T10:37:58.899Z,2.05
2023-03-17T10:40:32.039Z,1.80
2023-03-17T10:43:07.820Z,1.80
2023-03-17T10:45:40.901Z,2.08
2023-03-17T10:48:10.798Z,1.67
2023-03-17T10:50:39.795Z,2.00
2023-03-17T10:53:10.856Z,1.60
2023-03-17T10:55:48.831Z,1.95
2023-03-17T10:58:23.429Z,1.70
2023-03-17T11:00:57.995Z,1.90
2023-03-17T11:03:31.354Z,1.60
2023-03-17T11:06:06.717Z,1.65
2023-03-17T11:08:37.328Z,2.05
2023-03-17T11:11:10.501Z,1.30
2023-03-17T11:13:40.080Z,2.53
2023-03-17T11:16:37.294Z,1.40
2023-03-17T11:19:13.762Z,1.73
2023-03-17T11:21:54.435Z,2.10
2023-03-17T11:24:34.017Z,1.98
2023-03-17T11:27:25.106Z,1.67
2023-03-17T11:30:23.073Z,2.00
2023-03-17T11:33:05.645Z,1.75
2023-03-17T11:36:10.626Z,1.90
2023-03-17T11:39:00.706Z,1.23
2023-03-17T11:41:42.549Z,1.80
2023-03-17T11:44:49.892Z,2.10
2023-03-17T11:47:35.039Z,1.80
2023-03-17T11:50:30.099Z,1.88
2023-03-17T11:53:23.991Z,1.45
2023-03-17T11:55:59.711Z,1.70
2023-03-17T11:58:35.728Z,1.67
2023-03-17T12:01:09.154Z,1.33
2023-03-17T12:03:57.674Z,1.50
2023-03-17T12:06:38.964Z,1.30
2023-03-17T12:09:24.930Z,2.05
2023-03-17T12:11:54.279Z,1.05
2023-03-17T12:14:38.242Z,1.48
2023-03-17T12:17:25.776Z,1.70
2023-03-17T12:20:18.497Z,1.60
2023-03-17T12:23:33.125Z,1.25
2023-03-17T12:26:13.423Z,1.20
2023-03-17T12:29:06.432Z,1.55
2023-03-17T12:31:36.699Z,1.63
2023-03-17T12:34:15.998Z,1.27
2023-03-17T12:36:44.382Z,1.30
2023-03-17T12:39:22.048Z,1.20
2023-03-17T12:41:59.892Z,1.27
2023-03-17T12:44:51.798Z,1.70
2023-03-17T12:47:31.512Z,1.15
2023-03-17T12:50:20.137Z,1.20
2023-03-17T12:53:01.802Z,1.48
2023-03-17T12:55:36.569Z,1.65
2023-03-17T12:58:26.402Z,1.30
2023-03-17T13:01:18.402Z,1.15
2023-03-17T13:04:20.460Z,1.58
2023-03-17T13:07:10.985Z,1.45
2023-03-17T13:09:49.085Z,1.42
2023-03-17T13:12:40.398Z,1.70
2023-03-17T13:15:36.386Z,1.58
2023-03-17T13:18:22.571Z,1.42
2023-03-17T13:21:03.681Z,1.63
2023-03-17T13:23:44.847Z,1.48
2023-03-17T13:26:19.716Z,1.30
2023-03-17T13:28:52.399Z,1.58
2023-03-17T13:31:31.584Z,1.48
2023-03-17T13:34:22.353Z,1.77
2023-03-17T13:37:01.849Z,2.03
2023-03-17T13:39:48.867Z,1.70
2023-03-17T13:42:19.188Z,1.45
2023-03-17T13:44:54.518Z,1.70
2023-03-17T13:47:31.800Z,1.60
2023-03-17T13:50:10.225Z,1.52
2023-03-17T13:52:43.213Z,1.30
2023-03-17T13:55:21.671Z,1.30
2023-03-17T13:58:15.614Z,1.65
2023-03-17T14:00:51.252Z,1.20
2023-03-17T14:03:40.193Z,1.50
2023-03-17T14:06:11.862Z,1.52
2023-03-17T14:08:44.794Z,1.25
2023-03-17T14:11:34.981Z,1.30
2023-03-17T14:14:32.234Z,1.48
2023-03-17T14:17:13.441Z,1.40
2023-03-17T14:19:43.121Z,1.27
2023-03-17T14:22:22.638Z,1.73
2023-03-17T14:24:54.001Z,1.80
2023-03-17T14:27:24.156Z,1.52
2023-03-17T14:29:52.899Z,1.88
2023-03-17T14:32:22.036Z,1.20
2023-03-17T14:34:55.694Z,1.10
2023-03-17T14:37:23.648Z,1.08
2023-03-17T14:39:58.352Z,1.00
2023-03-17T14:42:33.458Z,1.02
2023-03-17T14:45:03.099Z,1.27
2023-03-17T14:47:37.275Z,1.35
2023-03-17T14:50:30.046Z,1.48
2023-03-17T14:53:01.715Z,1.35
2023-03-17T14:55:41.102Z,1.15
2023-03-17T14:58:16.964Z,1.10
2023-03-17T15:00:45.805Z,1.38
2023-03-17T15:03:22.185Z,1.20
2023-03-17T15:05:49.937Z,1.13
2023-03-17T15:08:38.337Z,1.42
2023-03-17T15:11:09.516Z,1.30
2023-03-17T15:13:38.323Z,1.25
2023-03-17T15:16:29.978Z,1.02
2023-03-17T15:19:36.331Z,1.13
2023-03-17T15:22:21.014Z,1.27
2023-03-17T15:25:05.195Z,1.10
2023-03-17T15:27:32.249Z,1.23
2023-03-17T15:29:58.997Z,1.27
2023-03-17T15:32:27.050Z,1.00
2023-03-17T15:34:57.316Z,1.20
2023-03-17T15:37:26.624Z,1.30
2023-03-17T15:39:55.756Z,1.02
2023-03-17T15:42:26.182Z,1.35
2023-03-17T15:44:53.477Z,1.30
2023-03-17T15:47:22.751Z,1.00
2023-03-17T15:49:50.951Z,1.20
2023-03-17T15:52:25.096Z,1.25
2023-03-17T15:54:57.510Z,1.10
2023-03-17T15:57:26.256Z,1.20
2023-03-17T15:59:53.107Z,1.00
2023-03-17T16:02:28.897Z,1.30
2023-03-17T16:04:56.178Z,1.35
2023-03-17T16:07:23.968Z,1.00
2023-03-17T16:09:51.228Z,1.20
2023-03-17T16:12:18.220Z,1.20
2023-03-17T16:14:45.656Z,1.08
2023-03-17T16:17:26.959Z,0.70
2023-03-17T16:19:53.968Z,0.90
2023-03-17T16:22:39.708Z,1.30
2023-03-17T16:25:25.598Z,1.10
2023-03-17T16:27:53.703Z,1.00
2023-03-17T16:30:23.471Z,0.95
2023-03-17T16:32:50.929Z,1.15
2023-03-17T16:35:20.070Z,3.28
2023-03-17T16:37:48.128Z,2.15
2023-03-17T16:40:27.441Z,1.90
2023-03-17T16:42:54.975Z,2.00
2023-03-17T16:45:33.024Z,1.80
2023-03-17T16:48:04.215Z,1.33
2023-03-17T16:50:35.249Z,1.70
2023-03-17T16:53:01.844Z,1.55
2023-03-17T16:55:29.510Z,1.60
2023-03-17T16:57:59.594Z,2.03
2023-03-17T17:00:33.359Z,1.30
2023-03-17T17:03:00.372Z,1.50
2023-03-17T17:05:31.200Z,1.30
2023-03-17T17:07:58.452Z,1.55
2023-03-17T17:10:27.944Z,1.40
2023-03-17T17:12:56.222Z,3.05
2023-03-17T17:15:23.437Z,1.40
2023-03-17T17:17:55.351Z,1.02
2023-03-17T17:20:25.400Z,0.90
2023-03-17T17:22:52.173Z,1.20
2023-03-17T17:25:18.954Z,1.35
2023-03-17T17:27:47.794Z,2.40
2023-03-17T17:30:19.110Z,2.17
2023-03-17T17:32:46.219Z,3.08
2023-03-17T17:35:14.001Z,3.03
2023-03-17T17:37:40.925Z,3.45
2023-03-17T17:40:13.532Z,2.33
2023-03-17T17:42:42.587Z,1.98
2023-03-17T17:45:10.222Z,3.78
2023-03-17T17:47:37.109Z,3.65
2023-03-17T17:50:05.085Z,2.50
2023-03-17T17:52:32.112Z,4.05
2023-03-17T17:55:01.312Z,2.97
2023-03-17T17:57:28.470Z,2.00
2023-03-17T17:59:56.017Z,1.92
2023-03-17T18:02:24.348Z,2.08
2023-03-17T18:04:51.510Z,1.70
2023-03-17T18:07:18.260Z,3.35
2023-03-17T18:09:46.973Z,2.25
2023-03-17T18:12:13.843Z,2.10
2023-03-17T18:14:41.159Z,2.40
2023-03-17T18:17:10.239Z,3.50
2023-03-17T18:19:36.848Z,4.90
2023-03-17T18:22:05.372Z,4.65
2023-03-17T18:24:32.190Z,3.63
2023-03-17T18:26:58.834Z,3.55
2023-03-17T18:29:25.505Z,3.55
2023-03-17T18:31:54.685Z,2.47
2023-03-17T18:34:31.677Z,2.03
2023-03-17T18:37:00.669Z,2.20
2023-03-17T18:39:29.122Z,2.25
2023-03-17T18:41:56.023Z,2.53
2023-03-17T18:44:24.864Z,2.08
2023-03-17T18:46:51.560Z,2.55
2023-03-17T18:49:18.225Z,2.20
2023-03-17T18:51:44.894Z,1.63
2023-03-17T18:54:12.030Z,1.95
2023-03-17T18:56:41.128Z,2.08
2023-03-17T18:59:07.936Z,2.38
2023-03-17T19:01:35.736Z,2.28
2023-03-17T19:04:04.591Z,2.15
2023-03-17T19:06:32.227Z,3.45
2023-03-17T19:08:59.027Z,3.38
2023-03-17T19:11:26.611Z,3.15
2023-03-17T19:13:53.724Z,2.92
2023-03-17T19:16:20.917Z,3.65
2023-03-17T19:18:47.613Z,3.05
2023-03-17T19:21:14.439Z,3.40
2023-03-17T19:23:41.551Z,3.05
2023-03-17T19:26:10.506Z,3.55
2023-03-17T19:28:37.266Z,3.28
2023-03-17T19:31:04.963Z,4.07
2023-03-17T19:33:32.707Z,3.00
2023-03-17T19:36:00.256Z,2.90
2023-03-17T19:38:29.986Z,2.85
2023-03-17T19:40:57.080Z,2.40
2023-03-17T19:43:39.413Z,3.97
2023-03-17T19:46:06.735Z,3.83
2023-03-17T19:48:33.781Z,3.50
2023-03-17T19:51:01.441Z,2.92
2023-03-17T19:53:30.009Z,2.78
2023-03-17T19:55:56.983Z,2.60
2023-03-17T19:58:23.909Z,3.40
2023-03-17T20:00:51.472Z,3.00
2023-03-17T20:03:18.259Z,2.80
2023-03-17T20:05:46.499Z,2.75
2023-03-17T20:08:14.425Z,3.15
2023-03-17T20:10:41.300Z,3.15
2023-03-17T20:13:08.208Z,2.92
2023-03-17T20:15:35.320Z,2.80
2023-03-17T20:18:02.050Z,2.90
2023-03-17T20:20:28.932Z,3.97
2023-03-17T20:22:55.732Z,3.08
2023-03-17T20:25:22.641Z,3.47
2023-03-17T20:27:49.530Z,3.22
2023-03-17T20:30:16.998Z,2.92
2023-03-17T20:32:44.157Z,3.40
2023-03-17T20:35:12.376Z,2.70
2023-03-17T20:37:39.483Z,2.70
2023-03-17T20:40:08.974Z,3.15
2023-03-17T20:42:38.017Z,2.58
2023-03-17T20:45:05.198Z,3.13
2023-03-17T20:47:31.839Z,3.00
2023-03-17T20:50:00.537Z,3.60
2023-03-17T20:52:29.980Z,3.97
2023-03-17T20:54:57.670Z,3.70
2023-03-17T20:57:24.530Z,4.07
2023-03-17T20:59:55.651Z,4.00
2023-03-17T21:02:23.377Z,4.15
2023-03-17T21:04:52.509Z,4.90
2023-03-17T21:07:21.798Z,4.75
2023-03-17T21:09:48.761Z,4.53
2023-03-17T21:12:19.013Z,4.60
2023-03-17T21:14:48.736Z,4.30
2023-03-17T21:17:17.879Z,3.92
2023-03-17T21:19:45.503Z,4.00
2023-03-17T21:22:12.478Z,3.20
2023-03-17T21:24:40.078Z,3.40
2023-03-17T21:27:12.588Z,3.92
2023-03-17T21:29:40.014Z,3.72
2023-03-17T21:32:08.380Z,4.05
2023-03-17T21:34:36.638Z,4.63
2023-03-17T21:37:03.661Z,4.40
2023-03-17T21:39:32.865Z,4.22
2023-03-17T21:42:01.246Z,4.15
2023-03-17T21:44:28.474Z,3.85
2023-03-17T21:46:56.599Z,3.50
2023-03-17T21:49:24.780Z,3.40
2023-03-17T21:51:51.786Z,3.63
2023-03-17T21:54:19.664Z,3.20
2023-03-17T21:56:47.589Z,3.63
2023-03-17T21:59:15.304Z,4.03
2023-03-17T22:01:44.374Z,3.80
2023-03-17T22:04:12.814Z,3.20
2023-03-17T22:06:40.248Z,3.28
2023-03-17T22:09:07.162Z,2.65
2023-03-17T22:11:35.963Z,3.10
2023-03-17T22:14:02.855Z,2.80
2023-03-17T22:16:30.267Z,3.13
2023-03-17T22:18:56.964Z,3.40
2023-03-17T22:21:25.198Z,3.33
2023-03-17T22:23:52.442Z,3.50
2023-03-17T22:26:21.329Z,3.00
2023-03-17T22:28:49.725Z,2.95
2023-03-17T22:31:22.856Z,3.38
2023-03-17T22:33:52.618Z,3.63
2023-03-17T22:36:19.277Z,3.00
2023-03-17T22:38:46.908Z,3.35
2023-03-17T22:41:17.668Z,2.75
2023-03-17T22:43:45.181Z,3.05
2023-03-17T22:46:12.345Z,3.10
2023-03-17T22:48:42.353Z,2.92
2023-03-17T22:51:14.880Z,2.50
2023-03-17T22:53:42.036Z,2.55
2023-03-17T22:56:11.209Z,2.88
2023-03-17T22:58:38.389Z,5.57
2023-03-17T23:01:06.909Z,3.05
2023-03-17T23:03:34.663Z,2.70
2023-03-17T23:06:03.719Z,2.80
2023-03-17T23:08:32.059Z,2.90
2023-03-17T23:11:01.206Z,2.40
2023-03-17T23:13:30.401Z,3.25
2023-03-17T23:15:57.492Z,2.50
2023-03-17T23:18:24.237Z,2.58
2023-03-17T23:20:52.207Z,3.13
2023-03-17T23:23:19.984Z,2.78
2023-03-17T23:25:48.282Z,2.80
2023-03-17T23:28:16.049Z,2.90
2023-03-17T23:30:44.091Z,2.50
2023-03-17T23:33:11.173Z,2.67
2023-03-17T23:35:38.976Z,2.85
2023-03-17T23:38:05.814Z,2.90
2023-03-17T23:40:35.034Z,2.63
2023-03-17T23:43:05.520Z,2.42
2023-03-17T23:45:33.670Z,2.92
2023-03-17T23:48:01.023Z,2.88
2023-03-17T23:50:28.143Z,2.90
2023-03-17T23:52:54.806Z,2.40
2023-03-17T23:55:21.812Z,2.80
2023-03-17T23:57:49.270Z,2.47
